Reno, Nevada
Current Conditions -  °F | °C
As of 11:55 PM on Friday 24 Oct 2014 (Local Time) from KRNO Reporting Station
Clear Clear  
Wind Chill: 62°   Ceiling: Unl
Heat Index: 62°   Visibility: 10mi
Dew Point: 19°   Wind: 14mph
Humidity: 19%   Direction: 180°S
Pressure: 29.98"   Gusts: NA
Location:  39.52°N, 119.81°W
Report Text: KRNO 250655Z 18012KT 10SM CLR 17/M07 A2998 RMK AO2 SLP110 T01671072
Loading
Personal Weather Stations






























Interactive Weather Map
Tropical Storm Tracking
New forecast layout! Learn more

10-Day Weather Forecast

Advertisements
Track Severe Weather on mobile